Time;durP1;ratioP1;P1;durP2;ratioP2;P2;SDS_P1;SDS_P2;PMS_P1;PMS_P2;Temp;Humidity;BMP_temperature;BMP_pressure;BME280_temperature;BME280_humidity;BME280_pressure;Samples;Min_cycle;Max_cycle;Signal;HPM_P1;HPM_P2
2022/02/20 00:00:05;;;;;;;1091.70;999.90;;;;;;;6.09;58.21;100407.94;689656;28;45224;-71
2022/02/20 00:00:32;;;;;;;1096.63;999.90;;;;;;;6.09;58.39;100399.06;687160;28;137640;-71
2022/02/20 00:00:54;;;;;;;1095.00;999.90;;;;;;;6.06;58.34;100408.25;690565;28;21526;-71
2022/02/20 00:01:15;;;;;;;1095.20;999.90;;;;;;;6.08;58.38;100411.63;689310;28;46333;-71
2022/02/20 00:01:38;;;;;;;1096.70;999.90;;;;;;;6.08;58.26;100403.59;689199;28;69263;-71
2022/02/20 00:02:00;;;;;;;1095.60;999.90;;;;;;;6.06;58.82;100399.38;691358;28;21546;-71
2022/02/20 00:02:21;;;;;;;1098.88;999.90;;;;;;;6.02;58.63;100398.84;689948;28;46393;-73
2022/02/20 00:02:42;;;;;;;1096.43;999.90;;;;;;;6.00;58.70;100400.81;691000;28;23291;-71
2022/02/20 00:03:04;;;;;;;1096.97;999.90;;;;;;;6.05;58.64;100408.41;691391;28;22363;-72
2022/02/20 00:03:26;;;;;;;1096.07;999.90;;;;;;;6.06;58.69;100412.78;691176;28;22411;-70
2022/02/20 00:03:47;;;;;;;1095.90;999.90;;;;;;;6.04;58.61;100399.53;690237;28;46405;-71
2022/02/20 00:04:08;;;;;;;1095.95;999.90;;;;;;;6.03;58.76;100400.50;691013;28;21523;-72
2022/02/20 00:04:31;;;;;;;1100.10;999.90;;;;;;;6.01;58.92;100394.47;689177;28;46212;-71
2022/02/20 00:04:52;;;;;;;1099.15;999.90;;;;;;;6.02;58.88;100392.63;688800;28;69491;-71
2022/02/20 00:05:13;;;;;;;1095.82;999.90;;;;;;;6.00;58.93;100394.63;690975;28;21152;-74
2022/02/20 00:05:36;;;;;;;1094.63;999.90;;;;;;;5.98;59.03;100402.81;690756;28;22383;-73
2022/02/20 00:05:58;;;;;;;1096.53;999.90;;;;;;;5.97;59.12;100395.78;689229;28;46126;-70
2022/02/20 00:06:19;;;;;;;1103.28;999.90;;;;;;;5.98;58.94;100397.47;689345;28;46302;-71
2022/02/20 00:06:41;;;;;;;1103.35;999.90;;;;;;;5.97;59.07;100387.72;690639;28;44440;-70
2022/02/20 00:07:03;;;;;;;1097.85;999.90;;;;;;;5.98;58.99;100386.75;689530;28;22984;-71
2022/02/20 00:07:24;;;;;;;1103.18;999.90;;;;;;;5.98;58.96;100388.59;689945;28;4713;-71
2022/02/20 00:07:45;;;;;;;1100.55;999.90;;;;;;;5.98;59.08;100381.38;686850;28;22399;-73
2022/02/20 00:08:07;;;;;;;1094.07;999.90;;;;;;;5.97;59.11;100384.22;686724;28;21188;-71
2022/02/20 00:08:30;;;;;;;1093.50;999.90;;;;;;;5.98;59.29;100385.91;685996;28;46362;-71
2022/02/20 00:08:52;;;;;;;1089.20;999.90;;;;;;;5.98;59.22;100380.56;684958;28;92115;-70
2022/02/20 00:09:13;;;;;;;1097.53;999.90;;;;;;;5.99;59.22;100376.84;688306;28;23458;-73
2022/02/20 00:09:36;;;;;;;1095.97;999.90;;;;;;;6.00;59.02;100382.06;689040;28;22409;-70
2022/02/20 00:09:57;;;;;;;1098.57;999.90;;;;;;;5.98;59.28;100376.03;689817;28;44520;-71
2022/02/20 00:10:18;;;;;;;1100.32;999.90;;;;;;;5.98;59.25;100375.19;685075;28;22807;-71
2022/02/20 00:10:39;;;;;;;1096.18;999.90;;;;;;;5.98;59.12;100376.03;684482;28;44358;-71
2022/02/20 00:11:01;;;;;;;1095.32;999.90;;;;;;;6.01;59.13;100380.25;685877;28;21279;-70
2022/02/20 00:11:22;;;;;;;1093.35;999.90;;;;;;;6.00;59.08;100378.53;687563;28;45255;-71
2022/02/20 00:11:44;;;;;;;1093.13;999.90;;;;;;;6.02;58.88;100372.03;689650;28;23457;-72
2022/02/20 00:12:06;;;;;;;1095.43;999.90;;;;;;;6.02;58.93;100372.03;689775;28;22396;-71
2022/02/20 00:12:29;;;;;;;1097.47;999.90;;;;;;;6.00;59.03;100367.81;688764;28;69435;-73
2022/02/20 00:12:50;;;;;;;1092.65;999.90;;;;;;;6.01;59.10;100372.19;690525;28;44383;-71
2022/02/20 00:13:12;;;;;;;1095.40;999.90;;;;;;;6.00;59.16;100374.03;689923;28;46316;-72
2022/02/20 00:13:34;;;;;;;1091.22;999.90;;;;;;;6.02;59.18;100368.50;690912;28;22194;-71
2022/02/20 00:13:55;;;;;;;1090.68;999.90;;;;;;;6.00;59.02;100360.63;689197;28;68440;-73
2022/02/20 00:14:17;;;;;;;1099.97;999.90;;;;;;;5.99;58.93;100367.00;690807;28;22201;-71
2022/02/20 00:14:38;;;;;;;1107.40;999.90;;;;;;;6.02;59.06;100360.47;687854;28;23529;-72
2022/02/20 00:15:01;;;;;;;1102.30;999.90;;;;;;;6.02;59.07;100361.31;682359;28;45210;-70
2022/02/20 00:15:22;;;;;;;1100.15;999.90;;;;;;;6.03;59.01;100357.63;680093;28;48508;-73
2022/02/20 00:15:43;;;;;;;1095.15;999.90;;;;;;;6.06;58.83;100351.13;681036;29;22404;-71
2022/02/20 00:16:05;;;;;;;1099.15;999.90;;;;;;;6.05;58.77;100352.97;680403;29;46427;-71
2022/02/20 00:16:27;;;;;;;1100.43;999.90;;;;;;;6.03;58.96;100357.63;680022;28;22388;-73
2022/02/20 00:16:48;;;;;;;1090.18;999.90;;;;;;;6.02;59.27;100357.78;682477;28;44373;-74
2022/02/20 00:17:09;;;;;;;1094.70;999.90;;;;;;;5.99;59.33;100352.72;686446;28;21536;-70
2022/02/20 00:17:30;;;;;;;1101.03;999.90;;;;;;;6.00;59.14;100355.25;686777;28;44377;-70
2022/02/20 00:17:54;;;;;;;1098.30;999.90;;;;;;;5.99;59.13;100348.22;687870;28;21529;-71
2022/02/20 00:18:15;;;;;;;1089.82;999.90;;;;;;;6.00;59.05;100346.38;686670;28;91882;-70
2022/02/20 00:18:36;;;;;;;1095.30;999.90;;;;;;;6.00;58.99;100357.09;690753;28;21508;-70
2022/02/20 00:18:57;;;;;;;1095.25;999.90;;;;;;;6.01;58.87;100353.44;690694;28;22373;-71
2022/02/20 00:19:20;;;;;;;1101.07;999.90;;;;;;;5.99;58.98;100344.69;691363;28;22353;-71
2022/02/20 00:19:44;;;;;;;1098.25;999.90;;;;;;;5.96;59.16;100359.22;690519;28;44384;-71
2022/02/20 00:20:07;;;;;;;1095.15;999.90;;;;;;;5.95;59.43;100350.31;687989;28;114953;-70
2022/02/20 00:20:30;;;;;;;1096.72;999.90;;;;;;;5.91;59.35;100348.16;690253;28;45168;-73
2022/02/20 00:20:52;;;;;;;1097.13;999.90;;;;;;;5.90;59.61;100344.59;689497;28;67320;-71
2022/02/20 00:21:13;;;;;;;1095.93;999.90;;;;;;;5.89;59.72;100356.34;690096;28;46262;-72
2022/02/20 00:21:34;;;;;;;1096.63;999.90;;;;;;;5.89;59.66;100350.13;688831;28;44334;-71
2022/02/20 00:21:55;;;;;;;1100.28;999.90;;;;;;;5.91;59.56;100358.88;690773;28;23745;-71
2022/02/20 00:22:17;;;;;;;1103.20;999.90;;;;;;;5.94;59.58;100355.84;690883;28;22281;-72
2022/02/20 00:22:38;;;;;;;1093.18;999.90;;;;;;;5.92;59.46;100350.66;689895;28;46324;-70
2022/02/20 00:23:02;;;;;;;1091.80;999.90;;;;;;;5.93;59.41;100356.84;689493;28;46387;-71
2022/02/20 00:23:24;;;;;;;1095.47;999.90;;;;;;;5.93;59.66;100356.84;690384;28;39412;-71
2022/02/20 00:23:45;;;;;;;1100.47;999.90;;;;;;;5.91;59.46;100357.00;690016;28;45243;-71
2022/02/20 00:24:06;;;;;;;1098.57;999.90;;;;;;;5.90;59.85;100344.59;690589;28;21249;-71
2022/02/20 00:24:28;;;;;;;1095.00;999.90;;;;;;;5.89;59.89;100358.16;690914;28;22386;-70
2022/02/20 00:24:49;;;;;;;1098.10;999.90;;;;;;;5.88;59.76;100364.53;690148;28;46333;-71
2022/02/20 00:25:11;;;;;;;1094.18;999.90;;;;;;;5.91;59.67;100353.50;690436;28;43877;-70
2022/02/20 00:25:34;;;;;;;1096.80;999.90;;;;;;;5.90;59.70;100360.69;690561;28;22184;-70
2022/02/20 00:25:57;;;;;;;1100.05;999.90;;;;;;;5.91;59.56;100358.88;688111;28;90067;-71
2022/02/20 00:26:18;;;;;;;1099.80;999.90;;;;;;;5.91;59.33;100346.28;689122;28;45230;-73
2022/02/20 00:26:40;;;;;;;1098.55;999.90;;;;;;;5.89;59.51;100350.97;691608;28;1488;-73
2022/02/20 00:27:01;;;;;;;1099.28;999.90;;;;;;;5.89;59.62;100356.34;688233;28;18536;-71
2022/02/20 00:27:24;;;;;;;1097.78;999.90;;;;;;;5.91;59.51;100350.81;688983;28;907;-71
2022/02/20 00:27:47;;;;;;;1097.35;999.90;;;;;;;5.88;59.60;100351.97;687768;28;43869;-72
2022/02/20 00:28:09;;;;;;;1099.10;999.90;;;;;;;5.88;59.46;100343.94;685953;28;90462;-72
2022/02/20 00:28:31;;;;;;;1095.63;999.90;;;;;;;5.87;59.70;100347.59;686753;28;46289;-74
2022/02/20 00:28:52;;;;;;;1098.18;999.90;;;;;;;5.86;59.83;100350.44;688122;28;44388;-72
2022/02/20 00:29:13;;;;;;;1097.00;999.90;;;;;;;5.86;59.67;100342.38;691309;28;22397;-72
2022/02/20 00:29:35;;;;;;;1098.28;999.90;;;;;;;5.88;59.59;100345.78;691163;28;22377;-73
2022/02/20 00:29:58;;;;;;;1101.32;999.90;;;;;;;5.86;59.66;100342.38;686563;28;90758;-71
2022/02/20 00:30:20;;;;;;;1103.28;999.90;;;;;;;5.87;59.78;100346.75;688130;28;21476;-72
2022/02/20 00:30:44;;;;;;;1099.90;999.90;;;;;;;5.84;59.72;100341.72;688156;28;13307;-71
2022/02/20 00:31:06;;;;;;;1100.30;999.90;;;;;;;5.83;59.83;100346.25;687536;28;46090;-73
2022/02/20 00:31:27;;;;;;;1097.38;999.90;;;;;;;5.83;59.91;100340.88;686770;28;44294;-71
2022/02/20 00:31:48;;;;;;;1098.72;999.90;;;;;;;5.83;60.01;100343.56;689126;28;22214;-70
2022/02/20 00:32:10;;;;;;;1098.57;999.90;;;;;;;5.83;59.89;100337.34;688300;28;21492;-71
2022/02/20 00:32:31;;;;;;;1101.40;999.90;;;;;;;5.82;59.88;100339.19;687158;28;46259;-73
2022/02/20 00:32:54;;;;;;;1097.80;999.90;;;;;;;5.83;59.96;100335.53;688141;28;22242;-73
2022/02/20 00:33:17;;;;;;;1097.37;999.90;;;;;;;5.82;60.15;100333.81;684021;28;115319;-70
2022/02/20 00:33:39;;;;;;;1099.45;999.90;;;;;;;5.84;60.16;100341.72;687247;28;44195;-73
2022/02/20 00:34:00;;;;;;;1098.40;999.90;;;;;;;5.81;60.16;100336.66;687844;28;46500;-71
2022/02/20 00:34:21;;;;;;;1097.22;999.90;;;;;;;5.85;60.08;100343.41;690744;28;23520;-70
2022/02/20 00:34:45;;;;;;;1097.95;999.90;;;;;;;5.87;60.07;100336.88;690755;28;23324;-73
2022/02/20 00:35:08;;;;;;;1097.55;999.90;;;;;;;5.87;59.89;100334.19;688934;28;90171;-71
2022/02/20 00:35:30;;;;;;;1098.75;999.90;;;;;;;5.85;60.04;100324.66;689280;28;69406;-70
2022/02/20 00:35:52;;;;;;;1101.63;999.90;;;;;;;5.86;60.10;100334.34;682739;28;44152;-72
2022/02/20 00:36:13;;;;;;;1098.88;999.90;;;;;;;5.86;59.96;100331.66;678871;29;45227;-71
2022/02/20 00:36:35;;;;;;;1095.53;999.90;;;;;;;5.87;60.00;100334.19;679770;28;24317;-70
2022/02/20 00:36:56;;;;;;;1096.15;999.90;;;;;;;5.90;59.84;100333.06;676839;29;45126;-71
2022/02/20 00:37:19;;;;;;;1097.43;999.90;;;;;;;5.90;59.99;100338.41;675856;29;69406;-71
2022/02/20 00:37:40;;;;;;;1100.20;999.90;;;;;;;5.91;59.97;100338.25;676514;29;23476;-71
2022/02/20 00:38:03;;;;;;;1099.47;999.90;;;;;;;5.91;59.93;100324.03;682324;28;23424;-72
2022/02/20 00:38:24;;;;;;;1097.38;999.90;;;;;;;5.88;59.89;100324.34;681638;28;69486;-74
2022/02/20 00:38:45;;;;;;;1097.17;999.90;;;;;;;5.87;59.94;100331.50;684669;28;21052;-75
2022/02/20 00:39:07;;;;;;;1100.20;999.90;;;;;;;5.86;59.99;100326.31;685904;28;45266;-72
2022/02/20 00:39:31;;;;;;;1092.05;999.90;;;;;;;5.84;60.06;100334.50;687886;28;44399;-73
2022/02/20 00:39:54;;;;;;;1095.50;999.90;;;;;;;5.85;59.97;100327.31;683323;28;114735;-71
2022/02/20 00:40:15;;;;;;;1098.93;999.90;;;;;;;5.83;60.14;100329.31;685376;28;22026;-71
2022/02/20 00:40:38;;;;;;;1098.90;999.90;;;;;;;5.83;60.27;100323.94;683852;28;46398;-72
2022/02/20 00:41:00;;;;;;;1095.50;999.90;;;;;;;5.81;60.45;100321.41;683968;28;69320;-71
2022/02/20 00:41:21;;;;;;;1098.60;999.90;;;;;;;5.78;60.52;100324.41;684499;28;22385;-71
2022/02/20 00:41:42;;;;;;;1097.25;999.90;;;;;;;5.78;60.58;100327.94;686580;28;24164;-71
2022/02/20 00:42:05;;;;;;;1097.68;999.90;;;;;;;5.78;60.66;100337.81;688477;28;22357;-71
2022/02/20 00:42:26;;;;;;;1099.88;999.90;;;;;;;5.79;60.67;100334.13;687008;28;67411;-73
2022/02/20 00:42:49;;;;;;;1101.50;999.90;;;;;;;5.79;60.56;100331.47;691011;28;21520;-71
2022/02/20 00:43:10;;;;;;;1097.15;999.90;;;;;;;5.80;60.49;100317.06;689063;28;69651;-71
2022/02/20 00:43:32;;;;;;;1096.03;999.90;;;;;;;5.81;60.43;100320.59;690420;28;21517;-72
2022/02/20 00:43:53;;;;;;;1098.97;999.90;;;;;;;5.78;60.61;100319.91;690020;28;45238;-71
2022/02/20 00:44:15;;;;;;;1097.78;999.90;;;;;;;5.77;60.62;100315.53;690244;28;45245;-71
2022/02/20 00:44:36;;;;;;;1098.35;999.90;;;;;;;5.80;60.56;100318.88;690547;28;22382;-72
2022/02/20 00:44:59;;;;;;;1100.35;999.90;;;;;;;5.78;60.63;100314.56;688545;28;67508;-71
2022/02/20 00:45:20;;;;;;;1096.65;999.90;;;;;;;5.78;60.82;100319.91;690054;28;45245;-70
2022/02/20 00:45:41;;;;;;;1097.60;999.90;;;;;;;5.76;60.78;100313.84;690617;28;22413;-71
2022/02/20 00:46:02;;;;;;;1096.95;999.90;;;;;;;5.76;60.71;100321.88;690961;28;23860;-71
2022/02/20 00:46:24;;;;;;;1094.13;999.90;;;;;;;5.76;60.91;100324.56;690219;28;22409;-73
2022/02/20 00:46:46;;;;;;;1092.03;999.90;;;;;;;5.76;60.91;100318.38;689054;28;69220;-74
2022/02/20 00:47:08;;;;;;;1095.75;999.90;;;;;;;5.79;60.80;100320.75;689770;28;1955;-70
2022/02/20 00:47:29;;;;;;;1098.15;999.90;;;;;;;5.81;60.79;100323.25;689126;28;21491;-71
2022/02/20 00:47:51;;;;;;;1096.95;999.90;;;;;;;5.80;60.62;100321.56;687843;28;23477;-71
2022/02/20 00:48:19;;;;;;;1097.68;999.90;;;;;;;5.79;60.57;100318.06;685110;28;114783;-70
2022/02/20 00:48:40;;;;;;;1091.78;999.90;;;;;;;5.76;60.85;100316.53;680177;28;113456;-70
2022/02/20 00:49:01;;;;;;;1093.97;999.90;;;;;;;5.78;60.75;100308.31;684363;28;19951;-73
2022/02/20 00:49:23;;;;;;;1101.13;999.90;;;;;;;5.80;60.81;100314.41;685046;28;22401;-71
2022/02/20 00:49:44;;;;;;;1102.63;999.90;;;;;;;5.78;60.83;100311.88;684192;28;44377;-71
2022/02/20 00:50:06;;;;;;;1098.00;999.90;;;;;;;5.80;61.00;100308.16;686417;28;22400;-72
2022/02/20 00:50:27;;;;;;;1097.45;999.90;;;;;;;5.77;60.97;100307.50;686691;28;44365;-72
2022/02/20 00:50:50;;;;;;;1101.47;999.90;;;;;;;5.78;60.85;100309.19;685814;28;46387;-71
2022/02/20 00:51:11;;;;;;;1104.00;999.90;;;;;;;5.81;60.99;100325.94;685938;28;46224;-73
2022/02/20 00:51:32;;;;;;;1098.32;999.90;;;;;;;5.81;60.98;100309.88;686276;28;22401;-71
2022/02/20 00:51:53;;;;;;;1099.00;999.90;;;;;;;5.84;60.74;100304.19;682872;28;46342;-71
2022/02/20 00:52:15;;;;;;;1100.15;999.90;;;;;;;5.80;60.89;100305.50;683572;28;22432;-71
2022/02/20 00:52:36;;;;;;;1096.70;999.90;;;;;;;5.82;60.92;100311.56;680881;28;44410;-70
2022/02/20 00:52:57;;;;;;;1090.68;999.90;;;;;;;5.81;61.03;100312.53;684089;28;23466;-71
2022/02/20 00:53:20;;;;;;;1088.57;999.90;;;;;;;5.81;60.83;100307.19;683046;28;46309;-71
2022/02/20 00:53:41;;;;;;;1100.15;999.90;;;;;;;5.80;61.06;100298.31;680941;28;45265;-71
2022/02/20 00:54:04;;;;;;;1099.53;999.90;;;;;;;5.79;61.19;100296.63;684957;28;22402;-71
2022/02/20 00:54:28;;;;;;;1094.53;999.90;;;;;;;5.79;61.11;100301.97;682557;28;60217;-71
2022/02/20 00:54:51;;;;;;;1094.60;999.90;;;;;;;5.76;61.26;100295.09;685283;28;22445;-73
2022/02/20 00:55:12;;;;;;;1100.43;999.90;;;;;;;5.79;61.29;100296.63;682446;28;21861;-70
2022/02/20 00:55:33;;;;;;;1093.45;999.90;;;;;;;5.81;61.17;100305.34;683723;28;22394;-72
2022/02/20 00:55:54;;;;;;;1096.72;999.90;;;;;;;5.84;60.94;100305.03;684200;28;22232;-73
2022/02/20 00:56:16;;;;;;;1094.07;999.90;;;;;;;5.83;60.87;100311.41;685453;28;46277;-72
2022/02/20 00:56:39;;;;;;;1097.18;999.90;;;;;;;5.83;60.94;100298.00;679598;28;111942;-70
2022/02/20 00:57:00;;;;;;;1097.50;999.90;;;;;;;5.83;61.02;100307.84;683696;28;22278;-71
2022/02/20 00:57:22;;;;;;;1094.97;999.90;;;;;;;5.84;60.98;100298.84;683653;28;21534;-71
2022/02/20 00:57:44;;;;;;;1095.57;999.90;;;;;;;5.83;60.94;100299.81;683276;28;44317;-73
2022/02/20 00:58:08;;;;;;;1094.45;999.90;;;;;;;5.83;60.99;100303.38;685216;28;44322;-71
2022/02/20 00:58:29;;;;;;;1098.43;999.90;;;;;;;5.83;61.08;100292.63;684319;28;90423;-71
2022/02/20 00:58:50;;;;;;;1092.78;999.90;;;;;;;5.80;61.01;100289.41;684322;28;22392;-72
2022/02/20 00:59:12;;;;;;;1091.85;999.90;;;;;;;5.79;61.07;100291.25;685550;28;22380;-71
2022/02/20 00:59:33;;;;;;;1094.35;999.90;;;;;;;5.78;61.23;100286.88;685934;28;47201;-72
2022/02/20 00:59:55;;;;;;;1094.43;999.90;;;;;;;5.78;61.20;100290.44;689068;28;21307;-71
2022/02/20 01:00:17;;;;;;;1094.13;999.90;;;;;;;5.79;61.15;100291.25;687637;28;23458;-71
2022/02/20 01:00:38;;;;;;;1097.15;999.90;;;;;;;5.77;61.22;100288.75;685464;28;46418;-72
2022/02/20 01:00:59;;;;;;;1097.53;999.90;;;;;;;5.75;61.35;100290.75;689419;28;21532;-71
2022/02/20 01:01:20;;;;;;;1098.03;999.90;;;;;;;5.73;61.44;100292.72;685930;28;23403;-71
2022/02/20 01:01:44;;;;;;;1094.30;999.90;;;;;;;5.75;61.38;100290.75;684936;28;69234;-71
2022/02/20 01:02:05;;;;;;;1091.80;999.90;;;;;;;5.73;61.41;100286.53;681887;28;67250;-71
2022/02/20 01:02:26;;;;;;;1087.30;999.90;;;;;;;5.70;61.40;100293.03;681329;29;22409;-71
2022/02/20 01:02:48;;;;;;;1095.32;999.90;;;;;;;5.70;61.65;100290.34;680953;29;22431;-68
2022/02/20 01:03:09;;;;;;;1093.57;999.90;;;;;;;5.70;61.52;100301.06;681606;28;43720;-71
2022/02/20 01:03:31;;;;;;;1091.75;999.90;;;;;;;5.73;61.74;100292.72;682625;28;44796;-72
2022/02/20 01:03:53;;;;;;;1088.80;999.90;;;;;;;5.76;61.52;100294.25;684480;28;23471;-71
2022/02/20 01:04:15;;;;;;;1092.90;999.90;;;;;;;5.78;61.43;100284.22;684096;28;46261;-71
2022/02/20 01:04:36;;;;;;;1093.35;999.90;;;;;;;5.78;61.44;100289.56;681589;28;46623;-71
2022/02/20 01:04:58;;;;;;;1092.35;999.90;;;;;;;5.74;61.62;100283.69;682568;28;1074;-71
2022/02/20 01:05:20;;;;;;;1088.78;999.90;;;;;;;5.73;61.47;100286.53;682677;28;22277;-71
2022/02/20 01:05:42;;;;;;;1090.60;999.90;;;;;;;5.70;61.69;100290.34;680854;28;67487;-71
2022/02/20 01:06:03;;;;;;;1088.35;999.90;;;;;;;5.69;61.82;100275.28;682337;28;46321;-71
2022/02/20 01:06:25;;;;;;;1088.25;999.90;;;;;;;5.70;61.77;100286.84;685154;28;22428;-70
2022/02/20 01:06:47;;;;;;;1085.78;999.90;;;;;;;5.69;61.91;100291.38;688750;28;45334;-71
2022/02/20 01:07:08;;;;;;;1089.30;999.90;;;;;;;5.68;62.03;100288.84;688535;28;45251;-71
2022/02/20 01:07:33;;;;;;;1089.63;999.90;;;;;;;5.65;62.00;100284.63;683764;28;91862;-71
2022/02/20 01:07:54;;;;;;;1084.53;999.90;;;;;;;5.65;62.11;100292.66;686452;28;23464;-71
2022/02/20 01:08:16;;;;;;;1095.15;999.90;;;;;;;5.64;62.14;100285.63;681806;28;22454;-70
2022/02/20 01:08:40;;;;;;;1094.18;999.90;;;;;;;5.63;62.16;100281.28;674726;29;138089;-71
2022/02/20 01:09:02;;;;;;;1091.93;999.90;;;;;;;5.63;62.24;100272.38;678500;29;22405;-72
2022/02/20 01:09:25;;;;;;;1093.57;999.90;;;;;;;5.59;62.42;100275.41;675922;29;69434;-71
2022/02/20 01:09:47;;;;;;;1092.60;999.90;;;;;;;5.61;62.30;100277.88;679144;29;45239;-71
2022/02/20 01:10:11;;;;;;;1088.97;999.90;;;;;;;5.62;62.47;100276.06;684346;28;44398;-72
2022/02/20 01:10:32;;;;;;;1092.40;999.90;;;;;;;5.62;62.23;100279.56;684905;28;92227;-71
2022/02/20 01:10:54;;;;;;;1097.35;999.90;;;;;;;5.63;62.36;100280.41;685526;28;21272;-71
2022/02/20 01:11:17;;;;;;;1084.93;999.90;;;;;;;5.62;62.23;100274.22;682667;28;69429;-72
2022/02/20 01:11:39;;;;;;;1088.97;999.90;;;;;;;5.60;62.42;100278.91;680879;28;44371;-72
2022/02/20 01:12:04;;;;;;;1087.82;999.90;;;;;;;5.60;62.53;100273.53;680419;28;115084;-72
2022/02/20 01:12:26;;;;;;;1090.22;999.90;;;;;;;5.59;62.35;100266.50;684655;28;29524;-72
2022/02/20 01:12:47;;;;;;;1091.78;999.90;;;;;;;5.57;62.67;100263.97;681416;28;46395;-71
2022/02/20 01:13:10;;;;;;;1089.18;999.90;;;;;;;5.56;62.68;100266.81;679734;29;22388;-71
2022/02/20 01:13:31;;;;;;;1091.68;999.90;;;;;;;5.56;62.64;100267.66;678694;28;67375;-72
2022/02/20 01:13:52;;;;;;;1092.57;999.90;;;;;;;5.55;62.67;100268.66;682811;28;22389;-71
2022/02/20 01:14:13;;;;;;;1090.95;999.90;;;;;;;5.56;62.68;100261.44;681788;28;23523;-72
2022/02/20 01:14:34;;;;;;;1094.95;999.90;;;;;;;5.59;62.80;100262.00;682503;28;22377;-72
2022/02/20 01:14:56;;;;;;;1091.55;999.90;;;;;;;5.59;62.67;100259.31;686174;28;21335;-72
2022/02/20 01:15:18;;;;;;;1092.15;999.90;;;;;;;5.56;63.00;100259.63;688417;28;45973;-72
2022/02/20 01:15:39;;;;;;;1095.65;999.90;;;;;;;5.56;62.88;100248.06;685395;28;46431;-71
2022/02/20 01:16:00;;;;;;;1092.47;999.90;;;;;;;5.58;62.73;100257.63;683073;28;22387;-72
2022/02/20 01:16:23;;;;;;;1096.00;999.90;;;;;;;5.59;62.89;100259.31;684675;28;21668;-71
2022/02/20 01:16:44;;;;;;;1095.90;999.90;;;;;;;5.59;62.86;100259.31;684333;28;47839;-70
2022/02/20 01:17:05;;;;;;;1095.82;999.90;;;;;;;5.58;62.94;100251.44;687661;28;22328;-71
2022/02/20 01:17:26;;;;;;;1092.97;999.90;;;;;;;5.58;62.91;100254.94;685261;28;46365;-71
2022/02/20 01:17:48;;;;;;;1095.97;999.90;;;;;;;5.58;63.10;100257.63;687061;28;23477;-70
2022/02/20 01:18:09;;;;;;;1096.00;999.90;;;;;;;5.58;63.17;100251.44;688032;28;45243;-71
2022/02/20 01:18:30;;;;;;;1090.15;999.90;;;;;;;5.55;63.44;100251.75;689401;28;22381;-71
2022/02/20 01:18:52;;;;;;;1093.72;999.90;;;;;;;5.56;63.22;100253.41;686306;28;23469;-72
2022/02/20 01:19:14;;;;;;;1095.50;999.90;;;;;;;5.56;63.21;100266.81;686133;28;44364;-70
2022/02/20 01:19:35;;;;;;;1095.93;999.90;;;;;;;5.60;63.04;100260.97;687445;28;44167;-71
2022/02/20 01:19:56;;;;;;;1098.88;999.90;;;;;;;5.60;63.03;100268.19;687783;28;21217;-71
2022/02/20 01:20:17;;;;;;;1096.75;999.90;;;;;;;5.59;63.16;100263.81;685154;28;23862;-72
2022/02/20 01:20:39;;;;;;;1102.85;999.90;;;;;;;5.60;63.14;100254.78;685461;28;21524;-71
2022/02/20 01:21:01;;;;;;;1098.75;999.90;;;;;;;5.60;62.90;100244.91;683573;28;69428;-72
2022/02/20 01:21:22;;;;;;;1090.72;999.90;;;;;;;5.60;62.95;100258.31;684159;28;22222;-71
2022/02/20 01:21:45;;;;;;;1093.70;999.90;;;;;;;5.61;63.07;100253.78;685399;28;23487;-72
2022/02/20 01:22:06;;;;;;;1098.88;999.90;;;;;;;5.63;62.97;100243.75;684869;28;46429;-70
2022/02/20 01:22:28;;;;;;;1097.32;999.90;;;;;;;5.62;62.76;100244.75;687193;28;46189;-71
2022/02/20 01:22:50;;;;;;;1095.65;999.90;;;;;;;5.60;62.89;100249.44;687333;28;46412;-71
2022/02/20 01:23:12;;;;;;;1095.97;999.90;;;;;;;5.58;62.91;100248.75;689351;28;69158;-71
2022/02/20 01:23:33;;;;;;;1092.65;999.90;;;;;;;5.56;63.15;100248.91;689880;28;22396;-71
2022/02/20 01:23:54;;;;;;;1090.53;999.90;;;;;;;5.54;63.31;100250.06;690823;28;22400;-71
2022/02/20 01:24:16;;;;;;;1095.15;999.90;;;;;;;5.53;63.40;100264.44;689412;28;21476;-71
2022/02/20 01:24:37;;;;;;;1092.47;999.90;;;;;;;5.53;63.57;100254.59;687754;28;46301;-71
2022/02/20 01:24:59;;;;;;;1092.43;999.90;;;;;;;5.52;63.59;100244.03;686992;28;23419;-71
2022/02/20 01:25:20;;;;;;;1092.35;999.90;;;;;;;5.52;63.62;100246.72;682818;28;1210;-71
2022/02/20 01:25:42;;;;;;;1091.70;999.90;;;;;;;5.53;63.60;100249.22;682631;28;22394;-71
2022/02/20 01:26:03;;;;;;;1092.70;999.90;;;;;;;5.50;63.56;100241.50;680390;29;42382;-72
2022/02/20 01:26:24;;;;;;;1095.85;999.90;;;;;;;5.49;63.56;100237.13;680665;28;22366;-70
2022/02/20 01:26:45;;;;;;;1098.57;999.90;;;;;;;5.49;63.82;100238.97;681222;28;22385;-71
2022/02/20 01:27:06;;;;;;;1094.82;999.90;;;;;;;5.45;63.92;100240.28;680603;28;11682;-71
2022/02/20 01:27:28;;;;;;;1091.60;999.90;;;;;;;5.45;63.92;100237.59;682364;28;22196;-71
2022/02/20 01:27:50;;;;;;;1091.72;999.90;;;;;;;5.45;63.90;100232.25;680817;28;69400;-71
2022/02/20 01:28:12;;;;;;;1089.15;999.90;;;;;;;5.45;63.96;100230.41;684891;28;22449;-71
2022/02/20 01:28:33;;;;;;;1090.20;999.90;;;;;;;5.45;63.93;100232.25;679722;29;44393;-71
2022/02/20 01:28:55;;;;;;;1095.85;999.90;;;;;;;5.45;63.84;100225.03;681923;28;23729;-70
2022/02/20 01:29:17;;;;;;;1092.15;999.90;;;;;;;5.42;64.10;100228.03;682462;28;46294;-72
2022/02/20 01:29:39;;;;;;;1089.93;999.90;;;;;;;5.44;63.95;100230.56;682396;28;67485;-71
2022/02/20 01:30:00;;;;;;;1095.70;999.90;;;;;;;5.45;64.00;100229.56;686563;28;22372;-71
2022/02/20 01:30:22;;;;;;;1093.15;999.90;;;;;;;5.43;64.09;100226.22;685745;28;23509;-71
2022/02/20 01:30:43;;;;;;;1092.47;999.90;;;;;;;5.42;64.20;100225.34;687820;28;44525;-71
2022/02/20 01:31:04;;;;;;;1094.90;999.90;;;;;;;5.39;64.27;100223.84;689378;28;21529;-71
2022/02/20 01:31:25;;;;;;;1095.63;999.90;;;;;;;5.38;64.30;100224.00;687751;28;21565;-71
2022/02/20 01:31:47;;;;;;;1093.63;999.90;;;;;;;5.36;64.66;100225.97;689422;28;22402;-71
2022/02/20 01:32:08;;;;;;;1082.20;999.90;;;;;;;5.37;64.33;100223.13;683895;28;45267;-72
2022/02/20 01:32:29;;;;;;;1087.80;999.90;;;;;;;5.39;64.40;100222.97;685673;28;22431;-71
2022/02/20 01:32:50;;;;;;;1093.43;999.90;;;;;;;5.41;64.34;100224.53;686684;28;23744;-71
2022/02/20 01:33:12;;;;;;;1094.00;999.90;;;;;;;5.39;64.27;100221.16;684852;28;23895;-71
2022/02/20 01:33:33;;;;;;;1095.22;999.90;;;;;;;5.41;64.44;100229.03;681219;28;45000;-71
2022/02/20 01:33:58;;;;;;;1091.75;999.90;;;;;;;5.40;64.35;100222.00;677661;28;113565;-71
2022/02/20 01:34:21;;;;;;;1085.50;999.90;;;;;;;5.40;64.33;100208.59;684214;28;20848;-72
2022/02/20 01:34:42;;;;;;;1087.70;999.90;;;;;;;5.40;64.50;100217.47;678242;28;69298;-71
2022/02/20 01:35:05;;;;;;;1092.82;999.90;;;;;;;5.43;64.37;100213.66;680621;29;21509;-70
2022/02/20 01:35:27;;;;;;;1089.85;999.90;;;;;;;5.44;64.38;100209.13;679744;28;90100;-70
2022/02/20 01:35:49;;;;;;;1090.00;999.90;;;;;;;5.42;64.36;100206.59;683979;28;995;-71
2022/02/20 01:36:10;;;;;;;1091.35;999.90;;;;;;;5.42;64.75;100217.31;685232;28;23458;-71
2022/02/20 01:36:31;;;;;;;1090.85;999.90;;;;;;;5.41;64.57;100213.81;685295;28;22370;-71
2022/02/20 01:36:55;;;;;;;1093.25;999.90;;;;;;;5.41;64.73;100212.97;685745;28;67603;-71
2022/02/20 01:37:17;;;;;;;1093.15;999.90;;;;;;;5.38;64.89;100210.63;683214;28;69484;-71
2022/02/20 01:37:39;;;;;;;1096.95;999.90;;;;;;;5.38;65.04;100214.13;683348;28;46377;-70
2022/02/20 01:38:01;;;;;;;1097.30;999.90;;;;;;;5.41;64.87;100223.69;684022;28;45240;-71